createdAt,value
2023-05-25T00:00:00.232Z,91.65
2023-05-25T00:02:30.250Z,90.92
2023-05-25T00:04:58.425Z,90.92
2023-05-25T00:07:26.409Z,90.96
2023-05-25T00:09:55.347Z,91.69
2023-05-25T00:12:23.309Z,91.66
2023-05-25T00:14:51.312Z,92.12
2023-05-25T00:17:20.062Z,92.20
2023-05-25T00:19:49.361Z,91.93
2023-05-25T00:22:17.824Z,91.71
2023-05-25T00:24:46.227Z,91.54
2023-05-25T00:27:14.247Z,91.06
2023-05-25T00:29:42.403Z,91.56
2023-05-25T00:32:11.397Z,91.87
2023-05-25T00:34:39.374Z,91.81
2023-05-25T00:37:09.368Z,91.39
2023-05-25T00:39:37.971Z,91.33
2023-05-25T00:42:08.131Z,91.67
2023-05-25T00:44:36.575Z,91.42
2023-05-25T00:47:06.021Z,92.10
2023-05-25T00:49:36.926Z,91.69
2023-05-25T00:52:06.879Z,91.20
2023-05-25T00:54:37.696Z,91.21
2023-05-25T00:57:08.973Z,91.13
2023-05-25T00:59:40.856Z,91.82
2023-05-25T01:02:12.058Z,92.06
2023-05-25T01:04:45.440Z,91.56
2023-05-25T01:07:19.996Z,91.42
2023-05-25T01:09:51.551Z,92.14
2023-05-25T01:12:21.177Z,92.69
2023-05-25T01:14:50.140Z,92.14
2023-05-25T01:17:21.243Z,92.58
2023-05-25T01:20:01.669Z,92.14
2023-05-25T01:22:44.675Z,91.96
2023-05-25T01:25:17.662Z,92.33
2023-05-25T01:27:50.344Z,92.18
2023-05-25T01:30:20.604Z,92.21
2023-05-25T01:32:50.983Z,92.28
2023-05-25T01:35:21.728Z,92.84
2023-05-25T01:37:52.978Z,92.45
2023-05-25T01:40:21.653Z,92.13
2023-05-25T01:42:50.607Z,92.14
2023-05-25T01:45:18.640Z,92.31
2023-05-25T01:47:54.934Z,92.44
2023-05-25T01:50:28.515Z,93.57
2023-05-25T01:53:03.600Z,93.50
2023-05-25T01:55:38.271Z,92.97
2023-05-25T01:58:07.770Z,92.60
2023-05-25T02:00:36.612Z,92.34
2023-05-25T02:03:06.470Z,92.67
2023-05-25T02:05:34.594Z,91.91
2023-05-25T02:08:04.785Z,92.00
2023-05-25T02:10:33.985Z,91.40
2023-05-25T02:13:02.067Z,91.50
2023-05-25T02:15:33.950Z,92.22
2023-05-25T02:18:06.191Z,91.77
2023-05-25T02:20:34.239Z,91.84
2023-05-25T02:23:02.211Z,91.34
2023-05-25T02:25:32.557Z,91.54
2023-05-25T02:28:01.003Z,91.40
2023-05-25T02:30:29.252Z,91.89
2023-05-25T02:32:59.565Z,92.37
2023-05-25T02:35:27.544Z,91.82
2023-05-25T02:37:55.815Z,91.68
2023-05-25T02:40:23.988Z,91.71
2023-05-25T02:42:53.789Z,91.70
2023-05-25T02:45:22.235Z,91.74
2023-05-25T02:47:50.471Z,91.74
2023-05-25T02:50:19.039Z,91.84
2023-05-25T02:52:50.716Z,91.72
2023-05-25T02:55:19.394Z,91.52
2023-05-25T02:57:48.024Z,91.63
2023-05-25T03:00:33.228Z,91.34
2023-05-25T03:03:02.346Z,91.87
2023-05-25T03:05:31.145Z,91.47
2023-05-25T03:07:59.188Z,92.03
2023-05-25T03:10:27.174Z,91.90
2023-05-25T03:12:55.864Z,91.96
2023-05-25T03:15:24.446Z,92.10
2023-05-25T03:18:01.650Z,92.33
2023-05-25T03:20:34.822Z,93.10
2023-05-25T03:23:04.044Z,93.13
2023-05-25T03:25:32.062Z,92.84
2023-05-25T03:28:01.485Z,92.24
2023-05-25T03:30:29.864Z,92.23
2023-05-25T03:32:59.459Z,91.71
2023-05-25T03:35:34.210Z,92.42
2023-05-25T03:38:02.755Z,92.21
2023-05-25T03:40:30.722Z,91.62
2023-05-25T03:43:01.003Z,91.64
2023-05-25T03:45:29.383Z,91.82
2023-05-25T03:47:58.012Z,91.47
2023-05-25T03:50:27.897Z,92.21
2023-05-25T03:52:55.854Z,92.29
2023-05-25T03:55:26.895Z,92.34
2023-05-25T03:57:54.929Z,91.69
2023-05-25T04:00:23.289Z,91.79
2023-05-25T04:02:51.783Z,92.09
2023-05-25T04:05:19.701Z,91.84
2023-05-25T04:07:50.121Z,91.26
2023-05-25T04:10:17.829Z,90.92
2023-05-25T04:12:45.886Z,90.25
2023-05-25T04:15:15.608Z,90.88
2023-05-25T04:18:05.936Z,90.78
2023-05-25T04:20:35.160Z,90.73
2023-05-25T04:23:04.537Z,89.95
2023-05-25T04:25:33.740Z,90.57
2023-05-25T04:28:02.217Z,90.75
2023-05-25T04:30:57.247Z,90.42
2023-05-25T04:33:39.170Z,89.87
2023-05-25T04:36:23.792Z,90.03
2023-05-25T04:38:55.340Z,89.88
2023-05-25T04:41:25.832Z,89.84
2023-05-25T04:44:05.893Z,89.52
2023-05-25T04:46:40.838Z,89.93
2023-05-25T04:49:17.347Z,89.15
2023-05-25T04:51:45.485Z,89.30
2023-05-25T04:54:15.194Z,89.72
2023-05-25T04:56:44.758Z,89.30
2023-05-25T04:59:12.737Z,88.68
2023-05-25T05:01:41.679Z,88.28
2023-05-25T05:04:13.541Z,88.95
2023-05-25T05:06:41.627Z,88.09
2023-05-25T05:09:16.528Z,88.89
2023-05-25T05:11:45.063Z,87.31
2023-05-25T05:14:14.388Z,88.11
2023-05-25T05:16:44.684Z,86.89
2023-05-25T05:19:12.977Z,87.33
2023-05-25T05:21:42.147Z,87.62
2023-05-25T05:24:11.459Z,87.86
2023-05-25T05:26:56.089Z,87.14
2023-05-25T05:29:32.243Z,87.05
2023-05-25T05:32:00.464Z,87.05
2023-05-25T05:34:28.480Z,86.95
2023-05-25T05:36:58.830Z,86.39
2023-05-25T05:39:29.112Z,86.44
2023-05-25T05:42:00.060Z,85.45
2023-05-25T05:44:29.514Z,84.55
2023-05-25T05:47:01.347Z,83.36
2023-05-25T05:49:30.950Z,82.44
2023-05-25T05:52:02.307Z,83.57
2023-05-25T05:54:30.352Z,83.02
2023-05-25T05:57:03.924Z,81.26
2023-05-25T05:59:31.689Z,80.26
2023-05-25T06:01:59.719Z,81.44
2023-05-25T06:04:29.136Z,81.07
2023-05-25T06:06:58.971Z,79.89
2023-05-25T06:09:27.439Z,79.34
2023-05-25T06:11:59.675Z,78.26
2023-05-25T06:14:29.116Z,78.07
2023-05-25T06:17:01.079Z,77.36
2023-05-25T06:19:29.581Z,76.87
2023-05-25T06:21:59.092Z,77.88
2023-05-25T06:24:28.696Z,77.98
2023-05-25T06:26:56.703Z,78.58
2023-05-25T06:29:25.683Z,78.91
2023-05-25T06:31:55.325Z,79.83
2023-05-25T06:34:23.848Z,78.95
2023-05-25T06:36:51.861Z,78.23
2023-05-25T06:39:20.258Z,77.74
2023-05-25T06:41:49.368Z,78.33
2023-05-25T06:44:27.314Z,77.75
2023-05-25T06:46:57.642Z,78.69
2023-05-25T06:49:26.094Z,78.33
2023-05-25T06:51:54.075Z,78.10
2023-05-25T06:54:22.583Z,78.25
2023-05-25T06:56:50.687Z,78.41
2023-05-25T06:59:19.422Z,77.21
2023-05-25T07:01:48.444Z,77.17
2023-05-25T07:04:18.472Z,76.13
2023-05-25T07:06:46.219Z,77.21
2023-05-25T07:09:14.848Z,77.24
2023-05-25T07:11:43.230Z,76.78
2023-05-25T07:14:11.311Z,76.20
2023-05-25T07:16:39.818Z,76.38
2023-05-25T07:19:07.957Z,77.56
2023-05-25T07:21:37.642Z,76.63
2023-05-25T07:24:07.115Z,74.69
2023-05-25T07:26:36.529Z,74.75
2023-05-25T07:29:04.610Z,75.10
2023-05-25T07:31:32.621Z,76.08
2023-05-25T07:34:00.734Z,77.18
2023-05-25T07:36:28.705Z,76.17
2023-05-25T07:38:59.822Z,76.94
2023-05-25T07:41:28.032Z,75.89
2023-05-25T07:43:55.972Z,76.53
2023-05-25T07:46:26.415Z,76.57
2023-05-25T07:48:55.068Z,75.99
2023-05-25T07:51:26.840Z,75.81
2023-05-25T07:53:55.394Z,74.87
2023-05-25T07:56:24.813Z,73.56
2023-05-25T07:58:53.597Z,72.96
2023-05-25T08:01:21.606Z,71.82
2023-05-25T08:03:50.471Z,73.06
2023-05-25T08:06:19.244Z,71.92
2023-05-25T08:08:47.423Z,70.56
2023-05-25T08:11:17.700Z,71.36
2023-05-25T08:13:47.889Z,71.85
2023-05-25T08:16:16.964Z,69.82
2023-05-25T08:18:48.235Z,69.13
2023-05-25T08:21:16.212Z,68.48
2023-05-25T08:23:44.365Z,68.01
2023-05-25T08:28:45.413Z,68.28
2023-05-25T08:31:14.822Z,67.54
2023-05-25T08:33:43.100Z,68.89
2023-05-25T08:36:11.844Z,67.76
2023-05-25T08:38:42.290Z,66.44
2023-05-25T08:41:13.636Z,67.00
2023-05-25T08:43:43.189Z,67.72
2023-05-25T08:46:11.598Z,67.55
2023-05-25T08:48:43.022Z,68.72
2023-05-25T08:51:12.368Z,70.41
2023-05-25T08:53:42.046Z,66.25
2023-05-25T08:56:15.695Z,67.29
2023-05-25T08:58:47.495Z,67.02
2023-05-25T09:01:20.364Z,65.42
2023-05-25T09:03:51.004Z,65.44
2023-05-25T09:06:21.956Z,67.44
2023-05-25T09:08:52.278Z,65.95
2023-05-25T09:11:36.150Z,66.06
2023-05-25T09:14:09.573Z,65.45
2023-05-25T09:16:38.839Z,63.25
2023-05-25T09:19:08.310Z,64.49
2023-05-25T09:21:38.180Z,64.30
2023-05-25T09:24:07.161Z,65.44
2023-05-25T09:26:35.748Z,66.40
2023-05-25T09:29:04.852Z,66.38
2023-05-25T09:31:33.156Z,66.69
2023-05-25T09:34:01.854Z,68.74
2023-05-25T09:36:32.801Z,66.25
2023-05-25T09:39:01.109Z,67.08
2023-05-25T09:41:30.085Z,66.92
2023-05-25T09:44:10.388Z,65.40
2023-05-25T09:46:42.694Z,64.46
2023-05-25T09:49:10.805Z,62.38
2023-05-25T09:51:41.043Z,61.25
2023-05-25T09:54:12.136Z,61.33
2023-05-25T09:56:43.117Z,62.29
2023-05-25T09:59:10.899Z,62.83
2023-05-25T10:01:41.797Z,61.63
2023-05-25T10:04:11.115Z,61.37
2023-05-25T10:06:41.565Z,61.94
2023-05-25T10:09:17.131Z,61.63
2023-05-25T10:11:46.049Z,62.43
2023-05-25T10:14:19.151Z,62.73
2023-05-25T10:16:51.892Z,63.06
2023-05-25T10:19:23.825Z,62.98
2023-05-25T10:22:04.580Z,61.59
2023-05-25T10:24:37.954Z,61.77
2023-05-25T10:27:18.829Z,61.95
2023-05-25T10:29:54.494Z,58.83
2023-05-25T10:32:23.621Z,60.29
2023-05-25T10:34:54.684Z,58.82
2023-05-25T10:37:26.401Z,57.92
2023-05-25T10:39:56.943Z,55.32
2023-05-25T10:42:25.264Z,56.50
2023-05-25T10:44:53.716Z,58.26
2023-05-25T10:47:23.378Z,60.22
2023-05-25T10:49:56.089Z,61.25
2023-05-25T10:52:31.136Z,60.97
2023-05-25T10:55:01.776Z,60.12
2023-05-25T10:57:31.079Z,60.44
2023-05-25T11:00:06.323Z,58.88
2023-05-25T11:02:51.884Z,57.08
2023-05-25T11:05:39.220Z,58.64
2023-05-25T11:08:12.776Z,60.28
2023-05-25T11:10:56.504Z,60.30
2023-05-25T11:13:36.529Z,61.09
2023-05-25T11:16:19.324Z,60.92
2023-05-25T11:18:53.530Z,61.40
2023-05-25T11:21:40.865Z,60.82
2023-05-25T11:24:16.538Z,62.18
2023-05-25T11:26:56.495Z,61.81
2023-05-25T11:29:27.497Z,62.51
2023-05-25T11:31:56.826Z,61.98
2023-05-25T11:34:25.983Z,60.54
2023-05-25T11:37:02.061Z,60.00
2023-05-25T11:39:32.627Z,59.93
2023-05-25T11:42:07.267Z,59.93
2023-05-25T11:44:38.111Z,59.67
2023-05-25T11:47:10.421Z,61.00
2023-05-25T11:49:41.935Z,59.92
2023-05-25T11:52:11.480Z,60.58
2023-05-25T11:54:42.017Z,61.75
2023-05-25T11:57:16.819Z,61.39
2023-05-25T11:59:50.966Z,60.88
2023-05-25T12:02:20.482Z,60.90
2023-05-25T12:04:56.214Z,58.20
2023-05-25T12:07:27.667Z,58.49
2023-05-25T12:10:08.007Z,57.26
2023-05-25T12:12:41.998Z,56.41
2023-05-25T12:15:11.872Z,56.80
2023-05-25T12:17:43.425Z,55.27
2023-05-25T12:20:12.744Z,57.73
2023-05-25T12:22:41.189Z,61.71
2023-05-25T12:25:13.590Z,59.75
2023-05-25T12:27:41.793Z,57.30
2023-05-25T12:30:11.672Z,56.22
2023-05-25T12:32:54.568Z,56.12
2023-05-25T12:35:23.830Z,54.80
2023-05-25T12:37:52.402Z,54.72
2023-05-25T12:40:25.302Z,54.35
2023-05-25T12:42:59.440Z,54.68
2023-05-25T12:45:28.454Z,57.04
2023-05-25T12:47:56.546Z,56.65
2023-05-25T12:50:25.002Z,56.10
2023-05-25T12:52:53.398Z,54.45
2023-05-25T12:55:27.110Z,53.48
2023-05-25T12:57:56.793Z,53.67
2023-05-25T13:00:26.624Z,54.52
2023-05-25T13:02:55.514Z,53.58
2023-05-25T13:05:25.351Z,53.66
2023-05-25T13:07:55.374Z,52.41
2023-05-25T13:10:26.236Z,53.31
2023-05-25T13:12:57.193Z,51.93
2023-05-25T13:15:27.251Z,53.89
2023-05-25T13:17:58.288Z,54.70
2023-05-25T13:20:30.218Z,53.37
2023-05-25T13:22:58.371Z,53.97
2023-05-25T13:25:28.064Z,53.11
2023-05-25T13:28:00.327Z,54.69
2023-05-25T13:30:29.050Z,53.09
2023-05-25T13:32:57.514Z,53.21
2023-05-25T13:35:38.280Z,53.75
2023-05-25T13:38:06.567Z,54.00
2023-05-25T13:40:36.061Z,53.38
2023-05-25T13:43:04.840Z,51.97
2023-05-25T13:45:32.860Z,51.79
2023-05-25T13:48:02.144Z,52.30
2023-05-25T13:50:30.567Z,50.39
2023-05-25T13:52:59.102Z,50.70
2023-05-25T13:55:27.637Z,49.84
2023-05-25T13:57:57.918Z,51.14
2023-05-25T14:00:26.348Z,52.13
2023-05-25T14:02:55.604Z,51.62
2023-05-25T14:05:23.978Z,54.11
2023-05-25T14:07:54.521Z,52.80
2023-05-25T14:10:25.401Z,53.02
2023-05-25T14:12:53.899Z,53.55
2023-05-25T14:15:23.419Z,53.13
2023-05-25T14:17:51.981Z,53.85
2023-05-25T14:20:25.699Z,51.29
2023-05-25T14:22:54.274Z,51.38
2023-05-25T14:25:22.534Z,49.25
2023-05-25T14:27:50.662Z,48.48
2023-05-25T14:30:18.640Z,47.18
2023-05-25T14:32:48.538Z,48.67
2023-05-25T14:35:16.517Z,45.70
2023-05-25T14:37:44.996Z,47.85
2023-05-25T14:40:14.468Z,51.38
2023-05-25T14:42:42.507Z,51.23
2023-05-25T14:45:11.711Z,49.42
2023-05-25T14:47:41.970Z,50.55
2023-05-25T14:50:11.570Z,43.49
2023-05-25T14:52:40.047Z,38.59
2023-05-25T14:55:09.122Z,36.11
2023-05-25T14:57:38.944Z,36.42
2023-05-25T15:00:08.159Z,39.98
2023-05-25T15:02:36.749Z,46.17
2023-05-25T15:05:04.934Z,49.30
2023-05-25T15:07:34.763Z,48.74
2023-05-25T15:10:03.198Z,45.33
2023-05-25T15:12:31.262Z,39.35
2023-05-25T15:14:59.263Z,39.65
2023-05-25T15:17:28.610Z,42.22
2023-05-25T15:19:56.632Z,41.13
2023-05-25T15:22:25.101Z,44.63
2023-05-25T15:24:55.213Z,46.65
2023-05-25T15:27:23.438Z,48.35
2023-05-25T15:29:51.429Z,45.47
2023-05-25T15:32:20.389Z,41.63
2023-05-25T15:34:48.337Z,40.40
2023-05-25T15:37:16.795Z,42.53
2023-05-25T15:39:45.266Z,46.40
2023-05-25T15:42:14.665Z,45.96
2023-05-25T15:44:43.926Z,45.46
2023-05-25T15:47:12.090Z,42.29
2023-05-25T15:49:40.810Z,35.65
2023-05-25T15:52:09.327Z,32.92
2023-05-25T15:54:37.620Z,33.20
2023-05-25T15:57:06.309Z,34.10
2023-05-25T15:59:37.263Z,34.07
2023-05-25T16:02:05.939Z,30.95
2023-05-25T16:04:34.009Z,35.78
2023-05-25T16:07:02.955Z,36.89
2023-05-25T16:09:31.654Z,42.29
2023-05-25T16:12:00.152Z,46.61
2023-05-25T16:14:28.306Z,43.29
2023-05-25T16:16:57.707Z,44.80
2023-05-25T16:19:25.678Z,45.47
2023-05-25T16:21:54.693Z,48.01
2023-05-25T16:24:23.581Z,46.37
2023-05-25T16:26:53.631Z,42.60
2023-05-25T16:29:21.824Z,39.88
2023-05-25T16:31:50.022Z,36.05
2023-05-25T16:34:19.453Z,35.88
2023-05-25T16:36:48.014Z,41.52
2023-05-25T16:39:16.009Z,43.23
2023-05-25T16:41:44.600Z,47.20
2023-05-25T16:44:13.071Z,41.87
2023-05-25T16:46:41.132Z,39.44
2023-05-25T16:49:09.154Z,36.56
2023-05-25T16:51:39.012Z,40.06
2023-05-25T16:54:07.044Z,42.56
2023-05-25T16:56:36.071Z,42.27
2023-05-25T16:59:03.997Z,40.46
2023-05-25T17:01:32.475Z,41.77
2023-05-25T17:04:01.309Z,42.83
2023-05-25T17:06:29.918Z,46.33
2023-05-25T17:08:59.352Z,49.06
2023-05-25T17:11:28.729Z,49.04
2023-05-25T17:13:57.433Z,50.34
2023-05-25T17:16:26.719Z,51.33
2023-05-25T17:18:55.224Z,51.82
2023-05-25T17:21:23.973Z,52.69
2023-05-25T17:23:52.507Z,52.23
2023-05-25T17:26:23.048Z,51.82
2023-05-25T17:28:51.098Z,47.36
2023-05-25T17:31:19.156Z,50.86
2023-05-25T17:33:47.751Z,51.96
2023-05-25T17:36:15.710Z,51.12
2023-05-25T17:38:45.147Z,52.89
2023-05-25T17:41:13.184Z,53.82
2023-05-25T17:43:43.229Z,52.38
2023-05-25T17:46:12.228Z,53.37
2023-05-25T17:48:40.240Z,51.41
2023-05-25T17:51:08.678Z,48.10
2023-05-25T17:53:37.097Z,48.70
2023-05-25T17:56:05.739Z,50.77
2023-05-25T17:58:34.344Z,51.17
2023-05-25T18:01:03.989Z,49.92
2023-05-25T18:03:32.185Z,51.32
2023-05-25T18:06:01.872Z,49.97
2023-05-25T18:08:29.835Z,46.77
2023-05-25T18:10:58.395Z,47.48
2023-05-25T18:13:27.392Z,48.84
2023-05-25T18:15:55.344Z,50.63
2023-05-25T18:18:25.201Z,49.36
2023-05-25T18:20:53.480Z,51.22
2023-05-25T18:23:22.202Z,52.88
2023-05-25T18:25:51.460Z,52.13
2023-05-25T18:28:19.487Z,52.77
2023-05-25T18:30:48.249Z,53.65
2023-05-25T18:33:16.928Z,54.90
2023-05-25T18:35:46.663Z,54.39
2023-05-25T18:38:15.220Z,55.09
2023-05-25T18:40:43.708Z,56.57
2023-05-25T18:43:11.763Z,55.39
2023-05-25T18:45:39.808Z,56.46
2023-05-25T18:48:08.873Z,55.80
2023-05-25T18:50:37.548Z,56.80
2023-05-25T18:53:09.779Z,57.21
2023-05-25T18:55:38.168Z,58.28
2023-05-25T18:58:06.480Z,58.63
2023-05-25T19:00:34.813Z,58.76
2023-05-25T19:03:03.164Z,59.08
2023-05-25T19:05:31.650Z,60.29
2023-05-25T19:08:00.132Z,59.83
2023-05-25T19:10:29.681Z,59.88
2023-05-25T19:12:57.686Z,60.64
2023-05-25T19:15:26.203Z,61.60
2023-05-25T19:17:54.206Z,62.15
2023-05-25T19:20:23.241Z,62.41
2023-05-25T19:22:52.051Z,63.12
2023-05-25T19:25:20.091Z,62.93
2023-05-25T19:27:49.483Z,63.69
2023-05-25T19:30:19.316Z,63.66
2023-05-25T19:32:47.602Z,64.17
2023-05-25T19:35:16.070Z,64.89
2023-05-25T19:37:44.536Z,64.78
2023-05-25T19:40:13.344Z,65.12
2023-05-25T19:42:41.285Z,65.17
2023-05-25T19:45:11.911Z,65.71
2023-05-25T19:47:40.067Z,66.29
2023-05-25T19:50:10.264Z,66.04
2023-05-25T19:52:38.295Z,65.92
2023-05-25T19:55:07.057Z,65.59
2023-05-25T19:57:35.515Z,66.09
2023-05-25T20:00:05.910Z,66.55
2023-05-25T20:02:40.957Z,66.94
2023-05-25T20:05:10.214Z,67.38
2023-05-25T20:07:38.653Z,67.17
2023-05-25T20:10:07.875Z,67.05
2023-05-25T20:12:36.541Z,68.24
2023-05-25T20:15:04.872Z,69.02
2023-05-25T20:17:32.933Z,69.79
2023-05-25T20:20:05.584Z,69.48
2023-05-25T20:22:33.854Z,70.28
2023-05-25T20:25:02.321Z,70.72
2023-05-25T20:27:30.480Z,71.74
2023-05-25T20:29:58.585Z,71.76
2023-05-25T20:32:27.500Z,71.95
2023-05-25T20:34:55.458Z,71.65
2023-05-25T20:37:25.295Z,72.10
2023-05-25T20:39:53.992Z,72.63
2023-05-25T20:42:22.042Z,72.20
2023-05-25T20:44:50.031Z,72.25
2023-05-25T20:47:18.461Z,72.38
2023-05-25T20:49:46.984Z,73.09
2023-05-25T20:52:15.544Z,73.19
2023-05-25T20:54:45.532Z,73.71
2023-05-25T20:57:13.585Z,73.80
2023-05-25T20:59:41.592Z,74.18
2023-05-25T21:02:10.722Z,74.49
2023-05-25T21:04:38.778Z,74.50
2023-05-25T21:07:07.170Z,74.66
2023-05-25T21:09:35.359Z,75.12
2023-05-25T21:12:05.182Z,75.40
2023-05-25T21:14:33.608Z,75.55
2023-05-25T21:17:02.621Z,75.76
2023-05-25T21:19:30.598Z,76.01
2023-05-25T21:21:59.135Z,76.24
2023-05-25T21:24:27.602Z,75.99
2023-05-25T21:26:55.640Z,76.60
2023-05-25T21:29:25.043Z,76.71
2023-05-25T21:31:53.880Z,76.70
2023-05-25T21:34:22.088Z,77.10
2023-05-25T21:36:50.589Z,77.51
2023-05-25T21:39:19.225Z,78.30
2023-05-25T21:41:47.352Z,78.10
2023-05-25T21:44:15.488Z,78.36
2023-05-25T21:46:47.480Z,78.69
2023-05-25T21:49:15.270Z,78.31
2023-05-25T21:51:44.269Z,79.01
2023-05-25T21:54:12.248Z,79.57
2023-05-25T21:56:40.854Z,79.18
2023-05-25T21:59:09.306Z,78.99
2023-05-25T22:01:37.425Z,79.14
2023-05-25T22:04:06.835Z,79.51
2023-05-25T22:06:35.777Z,79.41
2023-05-25T22:09:03.836Z,80.06
2023-05-25T22:11:32.316Z,79.77
2023-05-25T22:14:02.981Z,80.39
2023-05-25T22:16:31.153Z,80.83
2023-05-25T22:18:59.192Z,80.41
2023-05-25T22:21:29.056Z,80.82
2023-05-25T22:23:57.586Z,81.09
2023-05-25T22:26:27.413Z,81.15
2023-05-25T22:28:56.390Z,80.99
2023-05-25T22:31:25.763Z,81.39
2023-05-25T22:33:54.612Z,81.85
2023-05-25T22:36:23.098Z,81.45
2023-05-25T22:38:52.561Z,81.61
2023-05-25T22:41:20.593Z,82.17
2023-05-25T22:43:49.497Z,82.67
2023-05-25T22:46:17.653Z,82.25
2023-05-25T22:48:46.165Z,82.12
2023-05-25T22:51:14.148Z,82.19
2023-05-25T22:53:42.765Z,82.01
2023-05-25T22:56:12.219Z,82.53
2023-05-25T22:58:41.612Z,83.10
2023-05-25T23:01:10.598Z,82.73
2023-05-25T23:03:39.279Z,83.46
2023-05-25T23:06:08.882Z,83.91
2023-05-25T23:08:36.943Z,83.96
2023-05-25T23:11:04.889Z,83.52
2023-05-25T23:13:35.777Z,83.96
2023-05-25T23:16:04.428Z,84.15
2023-05-25T23:18:32.411Z,84.20
2023-05-25T23:21:00.864Z,84.69
2023-05-25T23:23:28.815Z,84.47
2023-05-25T23:25:57.911Z,84.87
2023-05-25T23:28:26.377Z,84.82
2023-05-25T23:30:56.088Z,85.06
2023-05-25T23:33:24.597Z,84.70
2023-05-25T23:35:52.821Z,85.23
2023-05-25T23:38:20.885Z,85.10
2023-05-25T23:40:48.945Z,85.27
2023-05-25T23:43:18.026Z,85.26
2023-05-25T23:45:46.222Z,85.50
2023-05-25T23:48:15.946Z,85.81
2023-05-25T23:50:44.486Z,85.86
2023-05-25T23:53:12.544Z,86.09
2023-05-25T23:55:40.530Z,85.91
2023-05-25T23:58:09.752Z,86.13
